createdAt,value
2022-12-03T00:00:56.578Z,2.51
2022-12-03T00:02:59.735Z,2.51
2022-12-03T00:05:02.673Z,2.43
2022-12-03T00:07:07.182Z,2.40
2022-12-03T00:09:10.118Z,2.47
2022-12-03T00:11:13.295Z,2.44
2022-12-03T00:13:16.243Z,2.50
2022-12-03T00:15:20.591Z,2.46
2022-12-03T00:17:23.481Z,2.43
2022-12-03T00:19:26.410Z,2.44
2022-12-03T00:21:29.239Z,2.40
2022-12-03T00:23:41.723Z,2.43
2022-12-03T00:25:45.264Z,2.49
2022-12-03T00:27:48.587Z,2.43
2022-12-03T00:29:51.697Z,2.49
2022-12-03T00:31:54.723Z,2.54
2022-12-03T00:33:57.585Z,2.57
2022-12-03T00:36:00.492Z,2.51
2022-12-03T00:38:03.394Z,2.47
2022-12-03T00:40:09.701Z,2.48
2022-12-03T00:42:12.567Z,2.44
2022-12-03T00:44:15.674Z,2.44
2022-12-03T00:46:21.606Z,2.42
2022-12-03T00:48:24.847Z,2.41
2022-12-03T00:50:27.740Z,2.45
2022-12-03T00:52:33.051Z,2.54
2022-12-03T00:54:38.360Z,2.54
2022-12-03T00:56:42.646Z,2.49
2022-12-03T00:58:45.593Z,2.48
2022-12-03T01:00:48.605Z,2.55
2022-12-03T01:02:51.617Z,2.57
2022-12-03T01:04:54.877Z,2.51
2022-12-03T01:06:58.401Z,2.47
2022-12-03T01:09:01.486Z,2.42
2022-12-03T01:11:24.425Z,2.48
2022-12-03T01:13:28.656Z,2.47
2022-12-03T01:15:31.622Z,2.49
2022-12-03T01:17:34.892Z,2.47
2022-12-03T01:19:41.224Z,2.41
2022-12-03T01:21:49.473Z,2.47
2022-12-03T01:23:52.363Z,2.44
2022-12-03T01:25:55.446Z,2.45
2022-12-03T01:27:58.438Z,2.47
2022-12-03T01:30:02.893Z,2.49
2022-12-03T01:32:17.137Z,2.47
2022-12-03T01:34:20.083Z,2.50
2022-12-03T01:36:23.209Z,2.49
2022-12-03T01:38:26.057Z,2.41
2022-12-03T01:40:28.958Z,2.47
2022-12-03T01:42:34.746Z,2.39
2022-12-03T01:44:38.403Z,2.43
2022-12-03T01:46:43.415Z,2.37
2022-12-03T01:48:46.797Z,2.49
2022-12-03T01:50:49.782Z,2.47
2022-12-03T01:52:53.566Z,2.49
2022-12-03T01:54:59.746Z,2.47
2022-12-03T01:57:03.474Z,2.46
2022-12-03T01:59:06.553Z,2.47
2022-12-03T02:01:14.232Z,2.49
2022-12-03T02:03:20.429Z,2.45
2022-12-03T02:05:26.213Z,2.40
2022-12-03T02:07:30.687Z,2.41
2022-12-03T02:09:33.640Z,2.37
2022-12-03T02:11:39.023Z,2.39
2022-12-03T02:13:41.921Z,2.37
2022-12-03T02:15:44.960Z,2.34
2022-12-03T02:17:47.884Z,2.38
2022-12-03T02:19:52.530Z,2.39
2022-12-03T02:22:01.713Z,2.42
2022-12-03T02:24:10.537Z,2.37
2022-12-03T02:26:14.867Z,2.39
2022-12-03T02:28:17.829Z,2.32
2022-12-03T02:30:23.256Z,2.37
2022-12-03T02:32:26.587Z,2.35
2022-12-03T02:34:40.498Z,2.36
2022-12-03T02:36:43.451Z,2.39
2022-12-03T02:38:46.786Z,2.41
2022-12-03T02:40:51.950Z,2.39
2022-12-03T02:42:58.675Z,2.47
2022-12-03T02:45:05.445Z,2.42
2022-12-03T02:47:09.077Z,2.41
2022-12-03T02:49:12.151Z,2.33
2022-12-03T02:51:15.049Z,2.30
2022-12-03T02:53:20.986Z,2.34
2022-12-03T02:55:24.336Z,2.33
2022-12-03T02:57:27.315Z,2.31
2022-12-03T02:59:31.700Z,2.34
2022-12-03T03:01:35.840Z,2.25
2022-12-03T03:03:39.229Z,2.21
2022-12-03T03:05:42.554Z,2.21
2022-12-03T03:07:46.014Z,2.22
2022-12-03T03:09:49.036Z,2.28
2022-12-03T03:11:51.902Z,2.30
2022-12-03T03:13:54.940Z,2.28
2022-12-03T03:15:59.814Z,2.30
2022-12-03T03:18:03.994Z,2.27
2022-12-03T03:20:09.102Z,2.30
2022-12-03T03:22:12.453Z,2.20
2022-12-03T03:24:15.334Z,2.19
2022-12-03T03:26:18.178Z,2.15
2022-12-03T03:28:21.574Z,2.18
2022-12-03T03:30:26.097Z,2.21
2022-12-03T03:32:31.467Z,2.13
2022-12-03T03:34:34.654Z,2.04
2022-12-03T03:36:37.881Z,2.12
2022-12-03T03:38:40.999Z,2.11
2022-12-03T03:40:44.420Z,2.03
2022-12-03T03:42:47.705Z,2.08
2022-12-03T03:44:50.853Z,2.12
2022-12-03T03:46:53.926Z,2.08
2022-12-03T03:48:58.122Z,2.08
2022-12-03T03:51:01.909Z,2.06
2022-12-03T03:53:06.966Z,1.99
2022-12-03T03:55:11.731Z,1.99
2022-12-03T03:57:14.635Z,2.03
2022-12-03T03:59:18.606Z,1.92
2022-12-03T04:01:21.707Z,2.01
2022-12-03T04:03:24.637Z,2.01
2022-12-03T04:05:29.073Z,2.04
2022-12-03T04:07:32.498Z,2.04
2022-12-03T04:09:35.440Z,1.95
2022-12-03T04:11:56.034Z,1.92
2022-12-03T04:13:58.962Z,1.95
2022-12-03T04:16:02.206Z,2.02
2022-12-03T04:18:22.881Z,1.99
2022-12-03T04:20:25.953Z,1.94
2022-12-03T04:22:41.335Z,2.07
2022-12-03T04:24:44.194Z,2.05
2022-12-03T04:27:04.401Z,2.04
2022-12-03T04:29:06.332Z,2.01
2022-12-03T04:31:23.174Z,2.04
2022-12-03T04:33:43.635Z,2.05
2022-12-03T04:35:46.656Z,2.05
2022-12-03T04:37:51.386Z,2.03
2022-12-03T04:39:54.434Z,2.05
2022-12-03T04:41:57.332Z,2.04
2022-12-03T04:44:17.746Z,2.03
2022-12-03T04:46:20.673Z,2.00
2022-12-03T04:48:24.782Z,1.99
2022-12-03T04:50:27.642Z,2.02
2022-12-03T04:52:30.587Z,2.01
2022-12-03T04:54:38.896Z,1.99
2022-12-03T04:56:41.804Z,2.00
2022-12-03T04:58:46.762Z,2.05
2022-12-03T05:00:49.672Z,1.96
2022-12-03T05:02:52.777Z,1.98
2022-12-03T05:04:55.840Z,2.04
2022-12-03T05:06:58.892Z,2.04
2022-12-03T05:09:01.781Z,1.94
2022-12-03T05:11:06.171Z,1.98
2022-12-03T05:13:09.307Z,2.01
2022-12-03T05:15:12.561Z,1.92
2022-12-03T05:17:15.690Z,1.99
2022-12-03T05:19:19.046Z,1.94
2022-12-03T05:21:21.236Z,1.95
2022-12-03T05:23:24.258Z,1.94
2022-12-03T05:25:27.317Z,1.97
2022-12-03T05:27:31.621Z,2.04
2022-12-03T05:29:34.994Z,1.99
2022-12-03T05:31:37.885Z,2.03
2022-12-03T05:33:44.202Z,2.04
2022-12-03T05:35:47.941Z,2.05
2022-12-03T05:37:51.042Z,2.03
2022-12-03T05:39:53.958Z,2.01
2022-12-03T05:42:14.688Z,2.02
2022-12-03T05:44:20.671Z,2.06
2022-12-03T05:46:23.837Z,1.99
2022-12-03T05:48:26.776Z,2.03
2022-12-03T05:50:31.153Z,2.05
2022-12-03T05:52:34.001Z,2.03
2022-12-03T05:54:37.015Z,2.07
2022-12-03T05:56:40.870Z,2.08
2022-12-03T05:58:43.691Z,2.07
2022-12-03T06:00:50.262Z,2.08
2022-12-03T06:02:53.466Z,2.03
2022-12-03T06:04:56.933Z,2.11
2022-12-03T06:06:59.979Z,2.10
2022-12-03T06:09:03.023Z,1.98
2022-12-03T06:11:06.055Z,1.93
2022-12-03T06:13:09.192Z,1.92
2022-12-03T06:15:14.075Z,1.95
2022-12-03T06:17:18.419Z,1.91
2022-12-03T06:19:21.608Z,1.81
2022-12-03T06:21:24.765Z,1.81
2022-12-03T06:23:27.879Z,1.71
2022-12-03T06:25:30.704Z,1.72
2022-12-03T06:27:33.570Z,1.75
2022-12-03T06:29:36.518Z,1.73
2022-12-03T06:31:39.471Z,1.81
2022-12-03T06:33:44.074Z,1.84
2022-12-03T06:35:46.951Z,1.77
2022-12-03T06:37:49.870Z,1.78
2022-12-03T06:39:53.068Z,1.72
2022-12-03T06:41:56.341Z,1.61
2022-12-03T06:43:59.407Z,1.71
2022-12-03T06:46:02.633Z,1.76
2022-12-03T06:48:06.367Z,1.81
2022-12-03T06:50:12.083Z,1.78
2022-12-03T06:52:14.985Z,1.72
2022-12-03T06:54:18.215Z,1.69
2022-12-03T06:56:22.411Z,1.73
2022-12-03T06:58:25.605Z,1.77
2022-12-03T07:00:28.603Z,1.76
2022-12-03T07:02:31.533Z,1.73
2022-12-03T07:04:35.208Z,1.70
2022-12-03T07:06:39.786Z,1.75
2022-12-03T07:08:42.784Z,1.69
2022-12-03T07:10:45.841Z,1.63
2022-12-03T07:12:48.911Z,1.68
2022-12-03T07:14:52.190Z,1.65
2022-12-03T07:16:55.331Z,1.68
2022-12-03T07:18:58.190Z,1.68
2022-12-03T07:21:01.093Z,1.62
2022-12-03T07:23:05.423Z,1.60
2022-12-03T07:25:09.710Z,1.55
2022-12-03T07:27:12.565Z,1.54
2022-12-03T07:29:15.411Z,1.52
2022-12-03T07:31:18.456Z,1.62
2022-12-03T07:33:21.352Z,1.56
2022-12-03T07:35:24.305Z,1.64
2022-12-03T07:37:27.466Z,1.60
2022-12-03T07:39:31.740Z,1.54
2022-12-03T07:41:34.745Z,1.58
2022-12-03T07:43:37.813Z,1.65
2022-12-03T07:45:40.867Z,1.64
2022-12-03T07:47:43.719Z,1.67
2022-12-03T07:49:46.606Z,1.65
2022-12-03T07:51:54.566Z,1.56
2022-12-03T07:53:57.421Z,1.61
2022-12-03T07:56:02.071Z,1.67
2022-12-03T07:58:05.241Z,1.70
2022-12-03T08:00:09.092Z,1.65
2022-12-03T08:02:14.709Z,1.60
2022-12-03T08:04:22.262Z,1.63
2022-12-03T08:06:25.165Z,1.60
2022-12-03T08:08:28.101Z,1.63
2022-12-03T08:10:31.127Z,1.73
2022-12-03T08:12:41.005Z,1.73
2022-12-03T08:14:44.482Z,1.69
2022-12-03T08:16:48.465Z,1.77
2022-12-03T08:18:52.218Z,1.60
2022-12-03T08:20:55.343Z,1.65
2022-12-03T08:22:58.749Z,1.75
2022-12-03T08:25:02.043Z,1.72
2022-12-03T08:27:07.041Z,1.58
2022-12-03T08:29:12.282Z,1.57
2022-12-03T08:31:20.021Z,1.72
2022-12-03T08:33:28.661Z,1.67
2022-12-03T08:35:32.731Z,1.63
2022-12-03T08:37:37.411Z,1.73
2022-12-03T08:39:45.667Z,1.80
2022-12-03T08:42:13.690Z,1.81
2022-12-03T08:44:25.136Z,1.77
2022-12-03T08:46:28.351Z,1.82
2022-12-03T08:48:36.813Z,1.90
2022-12-03T08:50:41.847Z,1.96
2022-12-03T08:52:44.746Z,2.03
2022-12-03T08:54:52.576Z,1.95
2022-12-03T08:56:56.046Z,2.02
2022-12-03T08:59:00.645Z,1.99
2022-12-03T09:01:19.242Z,2.00
2022-12-03T09:03:22.306Z,2.01
2022-12-03T09:05:28.917Z,2.06
2022-12-03T09:07:31.835Z,2.05
2022-12-03T09:09:34.993Z,2.05
2022-12-03T09:11:39.555Z,2.06
2022-12-03T09:13:42.375Z,2.15
2022-12-03T09:15:45.351Z,2.22
2022-12-03T09:17:50.221Z,2.31
2022-12-03T09:19:53.141Z,2.22
2022-12-03T09:21:56.122Z,2.30
2022-12-03T09:23:59.672Z,2.22
2022-12-03T09:26:04.771Z,2.28
2022-12-03T09:28:08.864Z,2.21
2022-12-03T09:30:12.555Z,2.35
2022-12-03T09:32:18.578Z,2.35
2022-12-03T09:34:23.574Z,2.38
2022-12-03T09:36:26.710Z,2.34
2022-12-03T09:38:29.655Z,2.28
2022-12-03T09:40:32.559Z,2.41
2022-12-03T09:42:36.029Z,2.40
2022-12-03T09:44:42.132Z,2.42
2022-12-03T09:46:45.592Z,2.39
2022-12-03T09:48:48.531Z,2.44
2022-12-03T09:50:53.379Z,2.41
2022-12-03T09:52:58.994Z,2.40
2022-12-03T09:55:02.815Z,2.41
2022-12-03T09:57:05.826Z,2.50
2022-12-03T09:59:14.068Z,2.60
2022-12-03T10:01:17.281Z,2.54
2022-12-03T10:03:26.516Z,2.58
2022-12-03T10:05:33.255Z,2.58
2022-12-03T10:07:37.770Z,2.67
2022-12-03T10:09:40.868Z,2.64
2022-12-03T10:11:44.275Z,2.65
2022-12-03T10:13:47.426Z,2.64
2022-12-03T10:15:50.478Z,2.70
2022-12-03T10:17:54.624Z,2.78
2022-12-03T10:19:57.621Z,2.79
2022-12-03T10:22:01.037Z,2.72
2022-12-03T10:24:22.851Z,2.71
2022-12-03T10:26:38.758Z,2.67
2022-12-03T10:28:44.213Z,2.75
2022-12-03T10:30:54.491Z,2.77
2022-12-03T10:32:59.009Z,2.72
2022-12-03T10:35:10.236Z,2.71
2022-12-03T10:37:16.011Z,2.71
2022-12-03T10:39:20.576Z,2.65
2022-12-03T10:41:26.353Z,2.79
2022-12-03T10:43:29.200Z,2.66
2022-12-03T10:45:35.090Z,2.77
2022-12-03T10:47:38.309Z,2.64
2022-12-03T10:49:42.067Z,2.64
2022-12-03T10:51:46.097Z,2.81
2022-12-03T10:53:50.084Z,2.79
2022-12-03T10:55:58.801Z,2.94
2022-12-03T10:58:01.699Z,2.94
2022-12-03T11:00:05.367Z,2.97
2022-12-03T11:02:12.253Z,3.07
2022-12-03T11:04:23.213Z,3.02
2022-12-03T11:06:26.525Z,2.98
2022-12-03T11:08:33.122Z,2.95
2022-12-03T11:10:36.696Z,2.86
2022-12-03T11:12:42.405Z,2.90
2022-12-03T11:15:07.494Z,2.87
2022-12-03T11:17:10.364Z,2.86
2022-12-03T11:19:17.497Z,2.96
2022-12-03T11:21:20.386Z,3.05
2022-12-03T11:23:59.095Z,2.99
2022-12-03T11:26:02.013Z,3.01
2022-12-03T11:28:54.900Z,3.02
2022-12-03T11:31:01.809Z,3.02
2022-12-03T11:33:06.320Z,3.00
2022-12-03T11:35:12.820Z,3.01
2022-12-03T11:37:27.423Z,2.92
2022-12-03T11:39:59.722Z,3.02
2022-12-03T11:42:30.028Z,3.09
2022-12-03T11:44:34.690Z,3.08
2022-12-03T11:46:44.006Z,3.08
2022-12-03T11:48:47.868Z,2.81
2022-12-03T11:50:52.121Z,2.99
2022-12-03T11:52:56.820Z,2.79
2022-12-03T11:55:02.890Z,2.71
2022-12-03T11:57:27.138Z,2.87
2022-12-03T11:59:30.188Z,2.83
2022-12-03T12:01:38.908Z,2.86
2022-12-03T12:03:45.831Z,2.79
2022-12-03T12:06:01.563Z,2.83
2022-12-03T12:08:04.704Z,2.83
2022-12-03T12:10:08.592Z,2.81
2022-12-03T12:12:30.256Z,2.79
2022-12-03T12:14:33.165Z,2.82
2022-12-03T12:16:50.835Z,2.89
2022-12-03T12:18:55.451Z,2.76
2022-12-03T12:21:32.472Z,2.75
2022-12-03T12:23:35.805Z,2.68
2022-12-03T12:25:42.010Z,2.68
2022-12-03T12:27:49.418Z,2.66
2022-12-03T12:29:57.902Z,2.70
2022-12-03T12:32:09.518Z,2.77
2022-12-03T12:34:13.123Z,2.72
2022-12-03T12:36:16.305Z,2.80
2022-12-03T12:38:21.707Z,2.80
2022-12-03T12:40:26.803Z,2.75
2022-12-03T12:42:35.028Z,2.85
2022-12-03T12:44:37.880Z,2.75
2022-12-03T12:46:47.707Z,2.80
2022-12-03T12:48:57.986Z,2.78
2022-12-03T12:51:10.218Z,2.81
2022-12-03T12:53:17.011Z,2.77
2022-12-03T12:55:20.288Z,2.80
2022-12-03T12:57:24.415Z,2.80
2022-12-03T12:59:27.291Z,2.82
2022-12-03T13:01:31.774Z,2.63
2022-12-03T13:03:38.051Z,2.59
2022-12-03T13:05:45.543Z,2.48
2022-12-03T13:07:48.757Z,2.45
2022-12-03T13:09:56.095Z,2.55
2022-12-03T13:12:00.504Z,2.62
2022-12-03T13:14:03.831Z,2.65
2022-12-03T13:16:08.755Z,2.62
2022-12-03T13:18:23.470Z,2.70
2022-12-03T13:20:26.540Z,2.70
2022-12-03T13:22:31.112Z,2.63
2022-12-03T13:24:35.536Z,2.63
2022-12-03T13:26:40.548Z,2.65
2022-12-03T13:28:43.447Z,2.72
2022-12-03T13:30:46.375Z,2.70
2022-12-03T13:32:49.284Z,2.72
2022-12-03T13:34:52.858Z,2.70
2022-12-03T13:36:58.577Z,2.62
2022-12-03T13:39:03.825Z,2.74
2022-12-03T13:41:06.894Z,2.74
2022-12-03T13:43:11.159Z,2.72
2022-12-03T13:45:31.747Z,2.76
2022-12-03T13:47:36.406Z,2.71
2022-12-03T13:49:39.791Z,2.77
2022-12-03T13:52:00.512Z,2.77
2022-12-03T13:54:06.045Z,2.61
2022-12-03T13:56:22.277Z,2.52
2022-12-03T13:58:25.357Z,2.61
2022-12-03T14:00:28.553Z,2.62
2022-12-03T14:02:31.632Z,2.72
2022-12-03T14:04:34.938Z,2.76
2022-12-03T14:06:38.895Z,2.70
2022-12-03T14:08:41.760Z,2.72
2022-12-03T14:10:46.250Z,2.74
2022-12-03T14:12:48.061Z,2.64
2022-12-03T14:14:51.004Z,2.53
2022-12-03T14:16:59.501Z,2.49
2022-12-03T14:19:02.916Z,2.49
2022-12-03T14:21:05.913Z,2.51
2022-12-03T14:23:09.186Z,2.48
2022-12-03T14:25:12.163Z,2.51
2022-12-03T14:27:17.842Z,2.48
2022-12-03T14:29:20.879Z,2.45
2022-12-03T14:31:23.812Z,2.56
2022-12-03T14:33:26.758Z,2.44
2022-12-03T14:35:29.662Z,2.33
2022-12-03T14:37:33.945Z,2.37
2022-12-03T14:39:37.141Z,2.40
2022-12-03T14:41:57.199Z,2.35
2022-12-03T14:44:01.932Z,2.41
2022-12-03T14:46:04.876Z,2.45
2022-12-03T14:48:07.843Z,2.42
2022-12-03T14:50:14.254Z,2.49
2022-12-03T14:52:17.595Z,2.41
2022-12-03T14:54:20.678Z,2.47
2022-12-03T14:56:24.050Z,2.39
2022-12-03T14:58:27.606Z,2.35
2022-12-03T15:00:31.980Z,2.38
2022-12-03T15:02:34.971Z,2.31
2022-12-03T15:04:38.108Z,2.28
2022-12-03T15:06:41.803Z,2.24
2022-12-03T15:08:44.790Z,2.28
2022-12-03T15:10:47.655Z,2.25
2022-12-03T15:12:50.763Z,2.26
2022-12-03T15:14:53.760Z,2.27
2022-12-03T15:16:59.065Z,2.30
2022-12-03T15:19:02.123Z,2.33
2022-12-03T15:21:05.091Z,2.32
2022-12-03T15:23:14.059Z,2.36
2022-12-03T15:25:24.160Z,2.33
2022-12-03T15:27:27.099Z,2.33
2022-12-03T15:29:30.483Z,2.31
2022-12-03T15:31:33.511Z,2.36
2022-12-03T15:33:37.963Z,2.39
2022-12-03T15:35:42.555Z,2.35
2022-12-03T15:37:45.754Z,2.37
2022-12-03T15:39:49.095Z,2.35
2022-12-03T15:41:52.114Z,2.30
2022-12-03T15:43:55.180Z,2.28
2022-12-03T15:45:58.427Z,2.20
2022-12-03T15:48:02.497Z,2.17
2022-12-03T15:50:08.268Z,2.18
2022-12-03T15:52:11.242Z,2.30
2022-12-03T15:54:14.359Z,2.33
2022-12-03T15:56:17.586Z,2.30
2022-12-03T15:58:20.420Z,2.20
2022-12-03T16:00:24.929Z,2.23
2022-12-03T16:02:33.849Z,2.13
2022-12-03T16:04:37.145Z,2.20
2022-12-03T16:06:41.450Z,2.14
2022-12-03T16:08:44.660Z,2.21
2022-12-03T16:10:47.517Z,2.17
2022-12-03T16:12:50.434Z,2.23
2022-12-03T16:14:53.391Z,2.18
2022-12-03T16:16:56.275Z,2.15
2022-12-03T16:18:59.545Z,2.02
2022-12-03T16:21:02.808Z,2.10
2022-12-03T16:23:08.210Z,2.11
2022-12-03T16:25:11.122Z,2.12
2022-12-03T16:27:13.979Z,2.14
2022-12-03T16:29:17.661Z,2.13
2022-12-03T16:31:20.666Z,2.09
2022-12-03T16:33:27.573Z,2.06
2022-12-03T16:35:30.979Z,1.98
2022-12-03T16:37:33.936Z,2.00
2022-12-03T16:39:39.109Z,2.01
2022-12-03T16:41:42.032Z,2.07
2022-12-03T16:43:47.496Z,2.08
2022-12-03T16:46:09.867Z,2.10
2022-12-03T16:48:12.833Z,2.04
2022-12-03T16:50:21.784Z,2.07
2022-12-03T16:52:30.979Z,2.10
2022-12-03T16:54:34.128Z,2.10
2022-12-03T16:56:38.337Z,2.03
2022-12-03T16:58:41.361Z,2.03
2022-12-03T17:00:44.357Z,2.04
2022-12-03T17:02:47.325Z,1.99
2022-12-03T17:04:50.311Z,1.91
2022-12-03T17:06:53.811Z,2.01
2022-12-03T17:08:56.754Z,1.98
2022-12-03T17:10:59.741Z,1.87
2022-12-03T17:13:11.334Z,1.96
2022-12-03T17:15:14.585Z,1.94
2022-12-03T17:17:17.480Z,1.87
2022-12-03T17:19:20.723Z,1.91
2022-12-03T17:21:23.918Z,1.84
2022-12-03T17:23:27.073Z,1.91
2022-12-03T17:25:30.323Z,1.91
2022-12-03T17:27:33.216Z,1.89
2022-12-03T17:29:37.522Z,1.92
2022-12-03T17:31:42.600Z,1.86
2022-12-03T17:33:45.835Z,1.91
2022-12-03T17:35:48.908Z,1.83
2022-12-03T17:37:52.208Z,1.91
2022-12-03T17:39:55.298Z,1.91
2022-12-03T17:41:58.412Z,1.82
2022-12-03T17:44:04.744Z,1.86
2022-12-03T17:46:11.761Z,1.87
2022-12-03T17:48:14.770Z,1.78
2022-12-03T17:50:18.125Z,1.92
2022-12-03T17:52:20.985Z,1.98
2022-12-03T17:54:23.938Z,1.96
2022-12-03T17:56:26.829Z,1.93
2022-12-03T17:58:30.281Z,1.94
2022-12-03T18:00:33.485Z,1.85
2022-12-03T18:02:37.762Z,1.96
2022-12-03T18:04:40.861Z,1.87
2022-12-03T18:06:43.845Z,1.84
2022-12-03T18:08:46.780Z,1.88
2022-12-03T18:10:49.725Z,1.95
2022-12-03T18:12:58.326Z,1.99
2022-12-03T18:15:04.662Z,1.95
2022-12-03T18:17:07.779Z,1.94
2022-12-03T18:19:12.228Z,1.91
2022-12-03T18:21:15.518Z,1.91
2022-12-03T18:23:18.415Z,1.91
2022-12-03T18:25:21.355Z,1.94
2022-12-03T18:27:24.783Z,1.97
2022-12-03T18:29:27.790Z,1.98
2022-12-03T18:31:30.870Z,1.93
2022-12-03T18:33:33.793Z,1.97
2022-12-03T18:35:38.253Z,1.98
2022-12-03T18:37:41.354Z,1.98
2022-12-03T18:39:46.751Z,1.97
2022-12-03T18:41:49.667Z,2.04
2022-12-03T18:43:52.764Z,2.00
2022-12-03T18:45:55.684Z,2.04
2022-12-03T18:47:59.027Z,1.93
2022-12-03T18:50:02.367Z,1.90
2022-12-03T18:52:06.778Z,1.94
2022-12-03T18:54:12.549Z,1.88
2022-12-03T18:56:15.857Z,1.86
2022-12-03T18:58:19.299Z,1.84
2022-12-03T19:00:22.811Z,1.82
2022-12-03T19:02:54.347Z,1.81
2022-12-03T19:04:48.951Z,1.90
2022-12-03T19:06:51.843Z,1.95
2022-12-03T19:08:56.417Z,1.95
2022-12-03T19:11:00.771Z,1.85
2022-12-03T19:13:04.404Z,1.80
2022-12-03T19:15:08.906Z,1.88
2022-12-03T19:17:11.782Z,1.87
2022-12-03T19:19:14.616Z,1.76
2022-12-03T19:21:18.031Z,1.81
2022-12-03T19:23:20.943Z,1.85
2022-12-03T19:25:25.289Z,1.81
2022-12-03T19:27:30.183Z,1.80
2022-12-03T19:29:33.135Z,1.75
2022-12-03T19:31:36.124Z,1.73
2022-12-03T19:33:39.236Z,1.71
2022-12-03T19:35:46.219Z,1.71
2022-12-03T19:37:49.378Z,1.79
2022-12-03T19:39:54.320Z,1.76
2022-12-03T19:41:58.943Z,1.74
2022-12-03T19:44:06.343Z,1.79
2022-12-03T19:46:13.408Z,1.80
2022-12-03T19:48:16.321Z,1.77
2022-12-03T19:50:23.003Z,1.76
2022-12-03T19:52:26.304Z,1.74
2022-12-03T19:54:29.464Z,1.77
2022-12-03T19:56:32.579Z,1.80
2022-12-03T19:58:37.156Z,1.79
2022-12-03T20:00:40.427Z,1.77
2022-12-03T20:02:43.337Z,1.82
2022-12-03T20:04:46.619Z,1.85
2022-12-03T20:06:49.428Z,1.81
2022-12-03T20:08:52.801Z,1.83
2022-12-03T20:10:55.873Z,1.89
2022-12-03T20:12:58.810Z,1.89
2022-12-03T20:15:03.132Z,1.89
2022-12-03T20:17:06.243Z,1.83
2022-12-03T20:19:12.285Z,1.79
2022-12-03T20:21:16.651Z,1.82
2022-12-03T20:23:19.831Z,1.90
2022-12-03T20:25:22.735Z,1.91
2022-12-03T20:27:25.626Z,1.85
2022-12-03T20:29:28.532Z,1.81
2022-12-03T20:31:33.288Z,1.82
2022-12-03T20:33:36.618Z,1.81
2022-12-03T20:35:39.557Z,1.85
2022-12-03T20:37:42.788Z,1.88
2022-12-03T20:39:45.944Z,1.87
2022-12-03T20:41:48.834Z,1.84
2022-12-03T20:43:52.701Z,1.83
2022-12-03T20:46:01.001Z,1.80
2022-12-03T20:48:07.173Z,1.78
2022-12-03T20:50:10.406Z,1.72
2022-12-03T20:52:13.605Z,1.69
2022-12-03T20:54:16.530Z,1.70
2022-12-03T20:56:20.820Z,1.73
2022-12-03T20:58:23.703Z,1.76
2022-12-03T21:00:26.663Z,1.71
2022-12-03T21:02:29.562Z,1.72
2022-12-03T21:04:33.876Z,1.71
2022-12-03T21:06:38.160Z,1.78
2022-12-03T21:08:42.820Z,1.77
2022-12-03T21:10:46.098Z,1.70
2022-12-03T21:12:49.008Z,1.75
2022-12-03T21:14:52.140Z,1.69
2022-12-03T21:17:11.698Z,1.73
2022-12-03T21:19:15.305Z,1.68
2022-12-03T21:21:20.658Z,1.69
2022-12-03T21:23:23.529Z,1.72
2022-12-03T21:25:26.550Z,1.67
2022-12-03T21:27:30.184Z,1.72
2022-12-03T21:29:33.094Z,1.66
2022-12-03T21:31:37.381Z,1.73
2022-12-03T21:33:41.091Z,1.70
2022-12-03T21:35:44.311Z,1.60
2022-12-03T21:37:49.166Z,1.62
2022-12-03T21:39:52.323Z,1.68
2022-12-03T21:42:34.114Z,1.75
2022-12-03T21:44:18.370Z,1.66
2022-12-03T21:47:09.146Z,1.71
2022-12-03T21:48:45.088Z,1.75
2022-12-03T21:50:48.088Z,1.72
2022-12-03T21:52:52.702Z,1.77
2022-12-03T21:54:56.734Z,1.83
2022-12-03T21:56:59.655Z,1.82
2022-12-03T21:59:02.548Z,1.79
2022-12-03T22:01:12.853Z,1.78
2022-12-03T22:03:15.924Z,1.75
2022-12-03T22:05:19.178Z,1.82
2022-12-03T22:07:22.424Z,1.84
2022-12-03T22:09:27.097Z,1.79
2022-12-03T22:11:30.191Z,1.86
2022-12-03T22:13:33.123Z,1.81
2022-12-03T22:15:36.822Z,1.83
2022-12-03T22:17:39.747Z,1.78
2022-12-03T22:19:43.433Z,1.76
2022-12-03T22:21:46.652Z,1.77
2022-12-03T22:23:49.874Z,1.76
2022-12-03T22:26:00.902Z,1.70
2022-12-03T22:28:03.880Z,1.64
2022-12-03T22:30:07.934Z,1.68
2022-12-03T22:32:10.802Z,1.71
2022-12-03T22:34:13.879Z,1.75
2022-12-03T22:36:21.549Z,1.75
2022-12-03T22:38:25.883Z,1.78
2022-12-03T22:40:28.984Z,1.77
2022-12-03T22:42:33.669Z,1.84
2022-12-03T22:44:39.192Z,1.83
2022-12-03T22:46:42.115Z,1.79
2022-12-03T22:48:47.158Z,1.83
2022-12-03T22:50:50.859Z,1.85
2022-12-03T22:52:54.075Z,1.76
2022-12-03T22:54:57.527Z,1.77
2022-12-03T22:57:00.937Z,1.79
2022-12-03T22:59:08.259Z,1.78
2022-12-03T23:01:12.595Z,1.71
2022-12-03T23:03:15.741Z,1.79
2022-12-03T23:05:18.981Z,1.80
2022-12-03T23:07:22.758Z,1.74
2022-12-03T23:09:26.325Z,1.76
2022-12-03T23:11:29.676Z,1.78
2022-12-03T23:13:32.671Z,1.80
2022-12-03T23:15:37.469Z,1.80
2022-12-03T23:17:42.144Z,1.70
2022-12-03T23:19:45.216Z,1.74
2022-12-03T23:21:48.281Z,1.74
2022-12-03T23:23:54.709Z,1.71
2022-12-03T23:25:58.535Z,1.78
2022-12-03T23:28:01.829Z,1.74
2022-12-03T23:30:07.907Z,1.73
2022-12-03T23:32:12.391Z,1.74
2022-12-03T23:34:15.401Z,1.73
2022-12-03T23:36:19.486Z,1.73
2022-12-03T23:38:23.152Z,1.71
2022-12-03T23:40:26.690Z,1.69
2022-12-03T23:42:29.925Z,1.74
2022-12-03T23:44:33.100Z,1.68
2022-12-03T23:46:36.258Z,1.71
2022-12-03T23:48:42.490Z,1.71
2022-12-03T23:50:45.700Z,1.72
2022-12-03T23:52:48.599Z,1.68
2022-12-03T23:54:51.554Z,1.71
2022-12-03T23:56:54.446Z,1.74
2022-12-03T23:58:58.180Z,1.70
